Time;durP1;ratioP1;P1;durP2;ratioP2;P2;SDS_P1;SDS_P2;PMS_P1;PMS_P2;Temp;Humidity;BMP_temperature;BMP_pressure;BME280_temperature;BME280_humidity;BME280_pressure;Samples;Min_cycle;Max_cycle;Signal;HPM_P1;HPM_P2
2022/01/10 00:02:11;;;;;;;72.82;39.22;;;;;;;;;;6253213;28;20077;-63
2022/01/10 00:05:13;;;;;;;73.60;38.88;;;;;;;;;;6252572;28;20183;-63
2022/01/10 00:08:15;;;;;;;71.97;40.38;;;;;;;;;;6256180;28;20144;-63
2022/01/10 00:11:16;;;;;;;68.90;40.03;;;;;;;;;;6256901;28;21250;-64
2022/01/10 00:14:19;;;;;;;72.55;39.92;;;;;;;;;;6254443;28;20179;-64
2022/01/10 00:17:21;;;;;;;66.13;39.60;;;;;;;;;;6251497;28;20128;-64
2022/01/10 00:20:22;;;;;;;68.80;39.03;;;;;;;;;;6248174;28;20130;-63
2022/01/10 00:23:24;;;;;;;67.00;40.53;;;;;;;;;;6253814;28;20396;-64
2022/01/10 00:26:25;;;;;;;75.57;40.20;;;;;;;;;;6252577;28;20136;-64
2022/01/10 00:29:28;;;;;;;70.32;39.95;;;;;;;;;;6252411;28;20057;-64
2022/01/10 00:32:30;;;;;;;71.60;40.75;;;;;;;;;;6253334;28;20056;-64
2022/01/10 00:35:32;;;;;;;70.03;39.22;;;;;;;;;;6253194;28;20053;-64
2022/01/10 00:38:33;;;;;;;72.22;41.30;;;;;;;;;;6252164;28;20195;-65
2022/01/10 00:41:35;;;;;;;78.50;41.90;;;;;;;;;;6250564;28;20135;-64
2022/01/10 00:44:44;;;;;;;68.93;39.60;;;;;;;;;;6254124;28;20506;-65
2022/01/10 00:47:47;;;;;;;71.43;38.65;;;;;;;;;;6255858;28;20136;-64
2022/01/10 00:50:48;;;;;;;72.03;40.35;;;;;;;;;;6253722;28;20125;-64
2022/01/10 00:53:52;;;;;;;70.93;39.15;;;;;;;;;;6260472;28;20133;-64
2022/01/10 00:56:54;;;;;;;72.95;39.75;;;;;;;;;;6257049;28;20059;-65
2022/01/10 00:59:57;;;;;;;73.20;41.22;;;;;;;;;;6258263;28;20273;-65
2022/01/10 01:02:59;;;;;;;69.72;39.42;;;;;;;;;;6258867;28;20417;-65
2022/01/10 01:06:01;;;;;;;67.63;39.75;;;;;;;;;;6257734;28;20421;-64
2022/01/10 01:09:07;;;;;;;69.55;38.35;;;;;;;;;;6253950;28;20135;-65
2022/01/10 01:12:21;;;;;;;71.85;39.38;;;;;;;;;;6258576;28;20220;-65
2022/01/10 01:15:29;;;;;;;70.80;38.17;;;;;;;;;;6255790;28;20067;-65
2022/01/10 01:19:01;;;;;;;67.82;40.05;;;;;;;;;;6256219;28;20049;-65
2022/01/10 01:25:14;;;;;;;67.20;39.00;;;;;;;;;;6254148;28;20498;-65
2022/01/10 01:28:16;;;;;;;75.50;41.92;;;;;;;;;;6253661;28;20512;-65
2022/01/10 01:31:19;;;;;;;67.30;38.25;;;;;;;;;;6250634;28;20107;-65
2022/01/10 01:34:22;;;;;;;72.65;40.47;;;;;;;;;;6256796;28;20119;-64
2022/01/10 01:37:23;;;;;;;66.97;39.25;;;;;;;;;;6259993;28;20045;-64
2022/01/10 01:40:27;;;;;;;66.50;38.35;;;;;;;;;;6252614;28;20509;-64
2022/01/10 01:43:29;;;;;;;66.43;39.13;;;;;;;;;;6255482;28;20409;-64
2022/01/10 01:46:33;;;;;;;67.85;37.78;;;;;;;;;;6257981;28;20172;-65
2022/01/10 01:49:35;;;;;;;;;;;;;;;;;;6256765;28;20089;-64
2022/01/10 01:52:36;;;;;;;65.88;35.97;;;;;;;;;;6261105;28;19921;-65
2022/01/10 01:55:38;;;;;;;64.50;36.92;;;;;;;;;;6255108;28;20135;-65
2022/01/10 01:58:41;;;;;;;66.80;37.85;;;;;;;;;;6255795;28;20045;-65
2022/01/10 02:01:44;;;;;;;65.78;36.95;;;;;;;;;;6254725;28;20080;-64
2022/01/10 02:04:45;;;;;;;63.95;36.72;;;;;;;;;;6258025;28;20136;-65
2022/01/10 02:07:47;;;;;;;68.47;38.22;;;;;;;;;;6260139;28;20180;-65
2022/01/10 02:10:49;;;;;;;65.40;38.05;;;;;;;;;;6260003;28;20128;-65
2022/01/10 02:13:50;;;;;;;70.22;37.78;;;;;;;;;;6253550;28;20176;-64
2022/01/10 02:16:55;;;;;;;66.07;36.75;;;;;;;;;;6255756;28;20179;-65
2022/01/10 02:19:58;;;;;;;66.53;36.92;;;;;;;;;;6258195;28;20131;-64
2022/01/10 02:23:01;;;;;;;68.25;36.17;;;;;;;;;;6255608;28;20076;-65
2022/01/10 02:26:03;;;;;;;63.75;36.35;;;;;;;;;;6257402;28;20165;-65
2022/01/10 02:29:05;;;;;;;67.32;36.47;;;;;;;;;;6273691;28;20049;-65
2022/01/10 02:32:07;;;;;;;62.90;36.33;;;;;;;;;;6258355;28;20048;-65
2022/01/10 02:35:20;;;;;;;61.92;34.35;;;;;;;;;;6259407;28;20464;-65
2022/01/10 02:38:21;;;;;;;59.53;33.92;;;;;;;;;;6261093;28;20049;-64
2022/01/10 02:41:24;;;;;;;58.67;33.95;;;;;;;;;;6257540;28;20114;-64
2022/01/10 02:44:28;;;;;;;62.75;35.05;;;;;;;;;;6262122;28;20049;-64
2022/01/10 02:47:31;;;;;;;47.92;26.58;;;;;;;;;;6259256;28;20052;-65
2022/01/10 02:50:34;;;;;;;63.50;34.90;;;;;;;;;;6260527;28;20056;-64
2022/01/10 02:53:35;;;;;;;61.00;35.47;;;;;;;;;;6258957;28;20199;-65
2022/01/10 02:56:46;;;;;;;66.03;35.42;;;;;;;;;;6260171;28;20136;-65
2022/01/10 02:59:48;;;;;;;64.68;35.45;;;;;;;;;;6261163;28;20481;-64
2022/01/10 03:02:51;;;;;;;67.75;36.30;;;;;;;;;;6243262;28;20202;-64
2022/01/10 03:05:54;;;;;;;62.70;34.57;;;;;;;;;;6258118;28;20124;-64
2022/01/10 03:08:57;;;;;;;61.47;35.42;;;;;;;;;;6257309;28;20072;-64
2022/01/10 03:11:59;;;;;;;61.28;34.85;;;;;;;;;;6256116;28;20045;-64
2022/01/10 03:15:01;;;;;;;59.10;36.05;;;;;;;;;;6256684;28;20085;-64
2022/01/10 03:18:03;;;;;;;67.43;36.33;;;;;;;;;;6255743;28;20134;-65
2022/01/10 03:21:06;;;;;;;66.60;36.45;;;;;;;;;;6251048;28;20106;-65
2022/01/10 03:24:07;;;;;;;62.08;35.40;;;;;;;;;;6257245;28;20152;-63
2022/01/10 03:27:09;;;;;;;57.35;33.85;;;;;;;;;;6255462;28;20132;-64
2022/01/10 03:30:11;;;;;;;64.32;32.58;;;;;;;;;;6259686;28;20095;-64
2022/01/10 03:33:13;;;;;;;60.50;34.50;;;;;;;;;;6255479;28;20056;-64
2022/01/10 03:36:16;;;;;;;57.60;32.78;;;;;;;;;;6255643;28;20041;-64
2022/01/10 03:39:17;;;;;;;59.40;33.65;;;;;;;;;;6254719;28;20071;-64
2022/01/10 03:42:19;;;;;;;60.95;33.53;;;;;;;;;;6254358;28;20444;-64
2022/01/10 03:45:20;;;;;;;58.42;32.15;;;;;;;;;;6253356;28;20382;-64
2022/01/10 03:48:22;;;;;;;52.80;31.92;;;;;;;;;;6252668;28;20104;-65
2022/01/10 03:51:25;;;;;;;56.25;31.35;;;;;;;;;;6260859;28;20045;-64
2022/01/10 03:54:26;;;;;;;60.00;32.33;;;;;;;;;;6258299;28;20620;-64
2022/01/10 03:57:28;;;;;;;54.47;31.65;;;;;;;;;;6250931;28;20090;-63
2022/01/10 04:00:29;;;;;;;54.00;31.70;;;;;;;;;;6253715;28;20128;-65
2022/01/10 04:03:32;;;;;;;52.92;30.73;;;;;;;;;;6253105;28;20577;-64
2022/01/10 04:06:35;;;;;;;54.42;31.80;;;;;;;;;;6251398;28;20045;-64
2022/01/10 04:09:37;;;;;;;50.53;30.50;;;;;;;;;;6253083;28;20124;-63
2022/01/10 04:12:39;;;;;;;59.72;32.58;;;;;;;;;;6257480;28;20124;-65
2022/01/10 04:15:40;;;;;;;51.97;30.70;;;;;;;;;;6257128;28;20131;-64
2022/01/10 04:18:42;;;;;;;55.55;31.77;;;;;;;;;;6252944;28;20131;-64
2022/01/10 04:21:45;;;;;;;56.45;30.10;;;;;;;;;;6253888;28;20128;-64
2022/01/10 04:24:47;;;;;;;50.67;29.77;;;;;;;;;;6251142;28;20521;-64
2022/01/10 04:27:48;;;;;;;56.33;30.10;;;;;;;;;;6256856;28;20040;-64
2022/01/10 04:30:50;;;;;;;46.80;26.95;;;;;;;;;;6250695;28;20180;-64
2022/01/10 04:33:51;;;;;;;48.40;27.45;;;;;;;;;;6253773;28;20127;-64
2022/01/10 04:36:54;;;;;;;47.50;28.80;;;;;;;;;;6254894;28;20123;-64
2022/01/10 04:39:56;;;;;;;48.97;27.48;;;;;;;;;;6261024;28;20076;-64
2022/01/10 04:42:57;;;;;;;42.97;26.10;;;;;;;;;;6262535;28;20081;-64
2022/01/10 04:45:59;;;;;;;45.85;26.83;;;;;;;;;;6255565;28;20083;-64
2022/01/10 04:49:02;;;;;;;48.30;27.10;;;;;;;;;;6254661;28;20045;-64
2022/01/10 04:52:05;;;;;;;46.30;25.52;;;;;;;;;;6254051;28;20049;-64
2022/01/10 04:55:08;;;;;;;45.10;26.92;;;;;;;;;;6255306;28;20183;-64
2022/01/10 04:58:10;;;;;;;49.07;27.23;;;;;;;;;;6259026;28;20501;-62
2022/01/10 05:01:12;;;;;;;50.00;26.30;;;;;;;;;;6253784;28;20116;-64
2022/01/10 05:04:13;;;;;;;44.35;26.45;;;;;;;;;;6251476;28;20053;-64
2022/01/10 05:07:16;;;;;;;39.95;24.55;;;;;;;;;;6254805;28;20509;-64
2022/01/10 05:10:18;;;;;;;48.65;25.73;;;;;;;;;;6248092;28;20179;-64
2022/01/10 05:13:20;;;;;;;51.15;27.92;;;;;;;;;;6250244;28;20094;-64
2022/01/10 05:16:22;;;;;;;49.05;27.10;;;;;;;;;;6247815;28;20316;-63
2022/01/10 05:19:23;;;;;;;45.47;26.23;;;;;;;;;;6248836;28;20124;-63
2022/01/10 05:22:26;;;;;;;41.63;26.25;;;;;;;;;;6249942;28;20147;-63
2022/01/10 05:25:28;;;;;;;43.50;25.60;;;;;;;;;;6246935;28;20068;-64
2022/01/10 05:28:29;;;;;;;43.33;25.50;;;;;;;;;;6257304;28;20497;-63
2022/01/10 05:31:33;;;;;;;45.30;27.40;;;;;;;;;;6254625;28;20123;-64
2022/01/10 05:34:34;;;;;;;33.38;19.25;;;;;;;;;;6256724;28;20132;-63
2022/01/10 05:37:37;;;;;;;40.45;24.05;;;;;;;;;;6256911;28;20131;-63
2022/01/10 05:40:39;;;;;;;37.25;21.77;;;;;;;;;;6254462;28;20079;-65
2022/01/10 05:43:41;;;;;;;38.03;21.83;;;;;;;;;;6260761;28;20525;-64
2022/01/10 05:46:43;;;;;;;40.15;21.73;;;;;;;;;;6258510;28;20486;-64
2022/01/10 05:49:47;;;;;;;38.00;20.80;;;;;;;;;;6261759;28;20052;-63
2022/01/10 05:52:50;;;;;;;36.22;20.92;;;;;;;;;;6269476;28;20520;-63
2022/01/10 05:55:52;;;;;;;32.13;19.45;;;;;;;;;;6260423;28;20163;-64
2022/01/10 05:58:53;;;;;;;35.38;19.80;;;;;;;;;;6258944;28;20135;-62
2022/01/10 06:01:55;;;;;;;31.17;19.10;;;;;;;;;;6258998;28;20072;-64
2022/01/10 06:04:59;;;;;;;35.30;18.48;;;;;;;;;;6261369;28;20579;-65
2022/01/10 06:08:03;;;;;;;33.35;19.58;;;;;;;;;;6259549;28;20107;-64
2022/01/10 06:11:05;;;;;;;34.92;21.60;;;;;;;;;;6256234;28;20382;-65
2022/01/10 06:14:07;;;;;;;33.38;19.85;;;;;;;;;;6262231;28;20128;-64
2022/01/10 06:17:08;;;;;;;35.63;19.77;;;;;;;;;;6254361;28;20127;-63
2022/01/10 06:20:11;;;;;;;33.10;19.10;;;;;;;;;;6257933;28;20119;-65
2022/01/10 06:23:14;;;;;;;36.58;19.63;;;;;;;;;;6259466;28;20154;-63
2022/01/10 06:26:15;;;;;;;32.70;19.05;;;;;;;;;;6256714;28;20454;-63
2022/01/10 06:29:17;;;;;;;36.33;19.65;;;;;;;;;;6259279;28;20135;-63
2022/01/10 06:32:18;;;;;;;30.48;18.52;;;;;;;;;;6258129;28;20147;-64
2022/01/10 06:35:20;;;;;;;35.22;18.90;;;;;;;;;;6256888;28;20060;-63
2022/01/10 06:38:23;;;;;;;31.80;18.70;;;;;;;;;;6261283;28;20136;-63
2022/01/10 06:41:25;;;;;;;34.60;19.02;;;;;;;;;;6255419;28;20069;-64
2022/01/10 06:44:26;;;;;;;32.78;18.55;;;;;;;;;;6254400;28;20076;-64
2022/01/10 06:47:28;;;;;;;27.48;16.98;;;;;;;;;;6257512;28;20127;-64
2022/01/10 06:50:29;;;;;;;30.40;18.27;;;;;;;;;;6253997;28;20045;-65
2022/01/10 06:53:32;;;;;;;28.52;18.23;;;;;;;;;;6257221;28;20457;-64
2022/01/10 06:56:34;;;;;;;29.88;17.75;;;;;;;;;;6257892;28;20053;-64
2022/01/10 06:59:35;;;;;;;30.05;17.90;;;;;;;;;;6259824;28;20512;-64
2022/01/10 07:02:37;;;;;;;30.52;17.08;;;;;;;;;;6260245;28;20136;-65
2022/01/10 07:05:39;;;;;;;29.17;16.85;;;;;;;;;;6258189;28;20045;-64
2022/01/10 07:08:42;;;;;;;28.02;15.48;;;;;;;;;;6257420;28;20057;-65
2022/01/10 07:11:44;;;;;;;27.48;15.90;;;;;;;;;;6261171;28;20122;-64
2022/01/10 07:14:45;;;;;;;30.23;16.85;;;;;;;;;;6256964;28;20115;-64
2022/01/10 07:17:47;;;;;;;26.73;16.02;;;;;;;;;;6258229;28;20139;-64
2022/01/10 07:20:48;;;;;;;26.02;16.52;;;;;;;;;;6253679;28;20084;-64
2022/01/10 07:23:51;;;;;;;29.05;16.20;;;;;;;;;;6258855;28;20130;-64
2022/01/10 07:26:53;;;;;;;30.65;16.38;;;;;;;;;;6264317;28;20537;-64
2022/01/10 07:29:55;;;;;;;31.80;17.45;;;;;;;;;;6259645;28;20080;-64
2022/01/10 07:32:56;;;;;;;29.58;16.30;;;;;;;;;;6256975;28;20464;-65
2022/01/10 07:35:58;;;;;;;26.75;15.60;;;;;;;;;;6259945;28;20497;-65
2022/01/10 07:39:01;;;;;;;30.63;18.15;;;;;;;;;;6256675;28;20052;-65
2022/01/10 07:42:03;;;;;;;31.67;18.83;;;;;;;;;;6260906;28;20098;-65
2022/01/10 07:45:05;;;;;;;34.97;19.95;;;;;;;;;;6257080;28;20049;-64
2022/01/10 07:48:07;;;;;;;39.90;21.23;;;;;;;;;;6256495;28;20046;-65
2022/01/10 07:51:09;;;;;;;37.95;22.83;;;;;;;;;;6254318;28;20045;-63
2022/01/10 07:54:12;;;;;;;42.92;24.08;;;;;;;;;;6255859;28;20056;-65
2022/01/10 07:57:14;;;;;;;42.72;25.05;;;;;;;;;;6256516;28;20504;-65
2022/01/10 08:00:16;;;;;;;45.03;25.95;;;;;;;;;;6258696;28;20103;-66
2022/01/10 08:03:17;;;;;;;46.15;25.67;;;;;;;;;;6258881;28;20119;-65
2022/01/10 08:06:20;;;;;;;39.13;23.95;;;;;;;;;;6255391;28;20551;-65
2022/01/10 08:09:23;;;;;;;48.28;25.83;;;;;;;;;;6255931;28;20136;-65
2022/01/10 08:12:24;;;;;;;41.22;23.88;;;;;;;;;;6255315;28;20128;-65
2022/01/10 08:15:26;;;;;;;37.40;23.42;;;;;;;;;;6259628;28;20190;-65
2022/01/10 08:18:30;;;;;;;39.90;24.88;;;;;;;;;;6260818;28;20560;-65
2022/01/10 08:21:31;;;;;;;41.75;24.73;;;;;;;;;;6260582;28;20072;-64
2022/01/10 08:24:34;;;;;;;40.72;25.20;;;;;;;;;;6256044;28;20080;-65
2022/01/10 08:27:36;;;;;;;37.55;23.20;;;;;;;;;;6252075;28;20171;-65
2022/01/10 08:30:38;;;;;;;40.17;24.85;;;;;;;;;;6261899;28;20179;-65
2022/01/10 08:33:41;;;;;;;34.42;23.80;;;;;;;;;;6261684;28;20077;-65
2022/01/10 08:36:43;;;;;;;38.97;25.33;;;;;;;;;;6260999;28;20409;-65
2022/01/10 08:39:49;;;;;;;42.50;26.08;;;;;;;;;;6256011;28;20158;-65
2022/01/10 08:42:51;;;;;;;44.42;27.55;;;;;;;;;;6262858;28;20060;-64
2022/01/10 08:45:52;;;;;;;42.53;28.02;;;;;;;;;;6252834;28;20073;-65
2022/01/10 08:48:54;;;;;;;46.47;27.90;;;;;;;;;;6259602;28;20122;-65
2022/01/10 08:51:57;;;;;;;43.63;27.33;;;;;;;;;;6255223;28;20604;-65
2022/01/10 08:55:00;;;;;;;46.33;28.52;;;;;;;;;;6249894;28;20474;-65
2022/01/10 08:58:02;;;;;;;46.60;28.23;;;;;;;;;;6260197;28;20466;-65
2022/01/10 09:01:07;;;;;;;45.53;28.77;;;;;;;;;;6255949;28;20064;-65
2022/01/10 09:04:09;;;;;;;46.80;29.00;;;;;;;;;;6260651;28;20058;-65
2022/01/10 09:07:11;;;;;;;45.90;29.65;;;;;;;;;;6255752;28;20052;-65
2022/01/10 09:10:14;;;;;;;46.08;29.73;;;;;;;;;;6252132;28;20046;-65
2022/01/10 09:13:16;;;;;;;49.05;31.80;;;;;;;;;;6256000;28;20141;-65
2022/01/10 09:16:17;;;;;;;48.03;31.60;;;;;;;;;;6257751;28;20688;-65
2022/01/10 09:19:19;;;;;;;44.70;30.80;;;;;;;;;;6254349;28;20550;-65
2022/01/10 09:22:20;;;;;;;46.47;29.38;;;;;;;;;;6256220;28;20099;-65
2022/01/10 09:25:24;;;;;;;48.53;29.52;;;;;;;;;;6254326;28;20137;-65
2022/01/10 09:28:25;;;;;;;48.80;29.60;;;;;;;;;;6254211;28;20073;-65
2022/01/10 09:31:28;;;;;;;49.13;29.90;;;;;;;;;;6261437;28;20512;-65
2022/01/10 09:34:30;;;;;;;49.45;31.88;;;;;;;;;;6252499;28;20057;-66
2022/01/10 09:37:31;;;;;;;50.90;32.53;;;;;;;;;;6259201;28;20126;-65
2022/01/10 09:40:34;;;;;;;52.05;31.85;;;;;;;;;;6250974;28;20573;-65
2022/01/10 09:43:36;;;;;;;52.38;31.42;;;;;;;;;;6250775;28;20081;-65
2022/01/10 09:46:37;;;;;;;53.78;32.45;;;;;;;;;;6250862;28;20049;-66
2022/01/10 09:49:39;;;;;;;50.58;32.55;;;;;;;;;;6274118;28;20135;-66
2022/01/10 09:52:41;;;;;;;57.20;34.05;;;;;;;;;;6275212;28;20505;-66
2022/01/10 09:55:44;;;;;;;57.13;34.95;;;;;;;;;;6262521;28;20056;-66
2022/01/10 09:58:45;;;;;;;53.30;33.15;;;;;;;;;;6250758;28;20045;-66
2022/01/10 10:01:50;;;;;;;52.88;33.40;;;;;;;;;;6252912;28;20103;-66
2022/01/10 10:04:51;;;;;;;;;;;;;;;;;;6254846;28;20058;-66
2022/01/10 10:07:53;;;;;;;56.47;33.83;;;;;;;;;;6259683;28;20283;-66
2022/01/10 10:10:56;;;;;;;62.10;35.70;;;;;;;;;;6259905;28;20131;-66
2022/01/10 10:13:59;;;;;;;62.42;35.63;;;;;;;;;;6252851;28;20072;-66
2022/01/10 10:17:08;;;;;;;61.45;34.85;;;;;;;;;;6254852;28;20052;-66
2022/01/10 10:20:11;;;;;;;56.22;34.17;;;;;;;;;;6258653;28;20120;-66
2022/01/10 10:23:16;;;;;;;57.15;35.85;;;;;;;;;;6252485;28;20045;-66
2022/01/10 10:26:24;;;;;;;59.72;35.10;;;;;;;;;;6267060;28;20133;-66
2022/01/10 10:29:26;;;;;;;57.67;35.15;;;;;;;;;;6275494;28;20068;-67
2022/01/10 10:32:30;;;;;;;61.90;34.28;;;;;;;;;;6275003;28;20080;-65
2022/01/10 10:35:31;;;;;;;56.42;34.95;;;;;;;;;;6273709;28;20045;-67
2022/01/10 10:38:33;;;;;;;54.35;33.90;;;;;;;;;;6270945;28;20045;-67
2022/01/10 10:41:36;;;;;;;49.95;32.40;;;;;;;;;;6274156;28;20450;-67
2022/01/10 10:44:38;;;;;;;54.70;34.27;;;;;;;;;;6270463;28;20114;-67
2022/01/10 10:47:44;;;;;;;50.63;33.22;;;;;;;;;;6271997;28;20880;-68
2022/01/10 10:50:47;;;;;;;45.83;32.15;;;;;;;;;;6271744;28;20045;-67
2022/01/10 10:53:48;;;;;;;50.97;34.37;;;;;;;;;;6276144;28;20079;-67
2022/01/10 10:56:52;;;;;;;46.78;32.03;;;;;;;;;;6269866;28;20102;-67
2022/01/10 10:59:53;;;;;;;45.38;32.63;;;;;;;;;;6273756;28;20102;-67
2022/01/10 11:02:55;;;;;;;49.95;31.80;;;;;;;;;;6265134;28;20479;-66
2022/01/10 11:05:59;;;;;;;47.00;32.53;;;;;;;;;;6266342;28;20147;-67
2022/01/10 11:09:04;;;;;;;44.75;31.23;;;;;;;;;;6266832;28;20045;-67
2022/01/10 11:12:08;;;;;;;43.33;30.23;;;;;;;;;;6268091;28;20084;-67
2022/01/10 11:15:10;;;;;;;42.22;29.25;;;;;;;;;;6257514;28;20128;-67
2022/01/10 11:18:11;;;;;;;39.13;28.55;;;;;;;;;;6266100;28;20095;-67
2022/01/10 11:21:13;;;;;;;45.95;29.00;;;;;;;;;;6274837;28;21200;-67
2022/01/10 11:24:41;;;;;;;37.15;27.08;;;;;;;;;;6276614;28;20191;-67
2022/01/10 11:27:45;;;;;;;41.97;27.27;;;;;;;;;;6268242;28;20529;-67
2022/01/10 11:30:47;;;;;;;37.03;26.70;;;;;;;;;;6266496;28;20508;-65
2022/01/10 11:33:49;;;;;;;38.05;28.58;;;;;;;;;;6267083;28;20474;-67
2022/01/10 11:36:50;;;;;;;39.83;27.73;;;;;;;;;;6263879;28;20459;-67
2022/01/10 11:39:52;;;;;;;42.65;26.92;;;;;;;;;;6269753;28;20170;-67
2022/01/10 11:42:57;;;;;;;35.33;26.27;;;;;;;;;;6260471;28;20107;-66
2022/01/10 11:46:10;;;;;;;38.97;26.02;;;;;;;;;;6262006;28;20057;-67
2022/01/10 11:49:22;;;;;;;39.22;27.17;;;;;;;;;;6264364;28;20120;-66
2022/01/10 11:52:28;;;;;;;34.05;25.25;;;;;;;;;;6264755;28;20575;-66
2022/01/10 11:55:32;;;;;;;37.88;25.33;;;;;;;;;;6265514;28;20044;-67
2022/01/10 11:58:35;;;;;;;36.63;27.52;;;;;;;;;;6261213;28;20055;-67
2022/01/10 12:01:39;;;;;;;32.97;25.17;;;;;;;;;;6262017;28;20469;-66
2022/01/10 12:04:42;;;;;;;33.58;24.40;;;;;;;;;;6262772;28;20450;-65
2022/01/10 12:07:45;;;;;;;35.47;25.47;;;;;;;;;;6258939;28;20501;-65
2022/01/10 12:10:47;;;;;;;34.37;25.20;;;;;;;;;;6258040;28;20041;-66
2022/01/10 12:13:52;;;;;;;29.20;24.20;;;;;;;;;;6262675;28;20126;-66
2022/01/10 12:16:55;;;;;;;33.13;25.73;;;;;;;;;;6254505;28;20051;-67
2022/01/10 12:20:01;;;;;;;34.58;25.70;;;;;;;;;;6252072;28;20428;-66
2022/01/10 12:23:03;;;;;;;31.83;26.17;;;;;;;;;;6248427;28;20068;-66
2022/01/10 12:26:05;;;;;;;35.92;28.38;;;;;;;;;;6255740;28;20042;-66
2022/01/10 12:29:10;;;;;;;39.72;28.60;;;;;;;;;;6253999;28;20049;-67
2022/01/10 12:32:12;;;;;;;37.78;29.00;;;;;;;;;;6253458;28;20119;-67
2022/01/10 12:35:13;;;;;;;41.20;29.95;;;;;;;;;;6259825;28;20060;-67
2022/01/10 12:38:20;;;;;;;38.97;29.48;;;;;;;;;;6258019;28;20111;-66
2022/01/10 12:41:21;;;;;;;37.95;28.58;;;;;;;;;;6260809;28;20081;-66
2022/01/10 12:44:25;;;;;;;41.35;31.23;;;;;;;;;;6253476;28;20041;-66
2022/01/10 12:47:27;;;;;;;38.60;30.55;;;;;;;;;;6252566;28;20132;-66
2022/01/10 12:50:29;;;;;;;39.13;30.73;;;;;;;;;;6259664;28;20132;-66
2022/01/10 12:53:32;;;;;;;41.28;30.83;;;;;;;;;;6253971;28;20175;-66
2022/01/10 12:56:34;;;;;;;49.35;32.58;;;;;;;;;;6263296;28;20139;-67
2022/01/10 12:59:38;;;;;;;41.47;30.83;;;;;;;;;;6258103;28;20132;-67
2022/01/10 13:02:40;;;;;;;57.28;39.78;;;;;;;;;;6258342;28;20152;-66
2022/01/10 13:05:41;;;;;;;60.45;38.10;;;;;;;;;;6255701;28;20069;-67
2022/01/10 13:08:43;;;;;;;59.15;37.38;;;;;;;;;;6258824;28;20433;-66
2022/01/10 13:11:47;;;;;;;49.15;31.23;;;;;;;;;;6257437;28;20049;-67
2022/01/10 13:14:50;;;;;;;45.63;31.08;;;;;;;;;;6260542;28;20123;-67
2022/01/10 13:17:54;;;;;;;47.42;32.80;;;;;;;;;;6256763;28;20045;-67
2022/01/10 13:20:57;;;;;;;47.15;31.52;;;;;;;;;;6262141;28;20128;-67
2022/01/10 13:24:14;;;;;;;46.60;31.38;;;;;;;;;;6259890;28;20053;-67
2022/01/10 13:27:21;;;;;;;44.63;32.20;;;;;;;;;;6256558;28;20493;-66
2022/01/10 13:30:26;;;;;;;49.22;33.13;;;;;;;;;;6253713;28;20068;-67
2022/01/10 13:33:37;;;;;;;45.20;31.88;;;;;;;;;;6251323;28;20428;-67
2022/01/10 13:36:44;;;;;;;51.55;31.42;;;;;;;;;;6255519;28;20493;-67
2022/01/10 13:39:59;;;;;;;46.78;32.53;;;;;;;;;;6258879;28;20075;-67
2022/01/10 13:43:04;;;;;;;55.08;33.35;;;;;;;;;;6253894;28;20040;-67
2022/01/10 13:46:07;;;;;;;52.47;35.15;;;;;;;;;;6258790;28;20053;-67
2022/01/10 13:49:09;;;;;;;56.90;36.72;;;;;;;;;;6263356;28;20132;-67
2022/01/10 13:52:12;;;;;;;55.05;37.55;;;;;;;;;;6271478;28;20575;-67
2022/01/10 13:55:14;;;;;;;51.58;35.28;;;;;;;;;;6257933;28;20077;-67
2022/01/10 13:58:25;;;;;;;54.35;36.15;;;;;;;;;;6252701;28;20128;-67
2022/01/10 14:01:29;;;;;;;53.25;36.05;;;;;;;;;;6251101;28;20553;-67
2022/01/10 14:04:34;;;;;;;52.50;36.00;;;;;;;;;;6258364;28;20057;-67
2022/01/10 14:07:35;;;;;;;54.88;36.80;;;;;;;;;;6250241;28;20042;-67
2022/01/10 14:10:37;;;;;;;53.55;36.22;;;;;;;;;;6250247;28;20115;-67
2022/01/10 14:13:39;;;;;;;57.55;38.58;;;;;;;;;;6254747;28;20135;-67
2022/01/10 14:16:47;;;;;;;55.22;35.92;;;;;;;;;;6261061;28;20053;-67
2022/01/10 14:19:49;;;;;;;56.15;36.95;;;;;;;;;;6254365;28;20037;-67
2022/01/10 14:22:51;;;;;;;54.50;35.30;;;;;;;;;;6249551;28;20079;-67
2022/01/10 14:25:55;;;;;;;55.38;34.80;;;;;;;;;;6252733;28;20134;-67
2022/01/10 14:28:58;;;;;;;53.47;35.53;;;;;;;;;;6250140;28;20056;-67
2022/01/10 14:32:00;;;;;;;50.65;32.42;;;;;;;;;;6255578;28;20515;-66
2022/01/10 14:35:02;;;;;;;50.58;32.15;;;;;;;;;;6252686;28;20578;-69
2022/01/10 14:38:04;;;;;;;50.08;33.75;;;;;;;;;;6257185;28;20668;-66
2022/01/10 14:41:05;;;;;;;47.17;30.83;;;;;;;;;;6254968;28;20413;-68
2022/01/10 14:44:07;;;;;;;42.10;29.33;;;;;;;;;;6247377;28;20202;-68
2022/01/10 14:47:10;;;;;;;55.15;34.05;;;;;;;;;;6256897;28;20158;-69
2022/01/10 14:50:15;;;;;;;73.13;47.47;;;;;;;;;;6248936;28;20050;-68
2022/01/10 14:53:17;;;;;;;54.03;32.63;;;;;;;;;;6250579;28;20045;-68
2022/01/10 14:56:18;;;;;;;45.10;31.52;;;;;;;;;;6255522;28;20502;-68
2022/01/10 14:59:20;;;;;;;50.22;31.55;;;;;;;;;;6254648;28;20509;-69
2022/01/10 15:02:23;;;;;;;50.25;32.75;;;;;;;;;;6258770;28;20119;-69
2022/01/10 15:05:24;;;;;;;45.80;31.88;;;;;;;;;;6262618;28;20128;-68
2022/01/10 15:08:26;;;;;;;48.47;32.97;;;;;;;;;;6253171;28;20532;-68
2022/01/10 15:11:28;;;;;;;46.10;28.38;;;;;;;;;;6252846;28;20058;-68
2022/01/10 15:14:29;;;;;;;48.13;28.83;;;;;;;;;;6252627;28;20125;-68
2022/01/10 15:17:33;;;;;;;44.90;27.13;;;;;;;;;;6254104;28;20068;-68
2022/01/10 15:20:34;;;;;;;41.90;27.05;;;;;;;;;;6255680;28;20198;-69
2022/01/10 15:23:36;;;;;;;45.88;27.60;;;;;;;;;;6253782;28;20092;-68
2022/01/10 15:26:38;;;;;;;43.72;26.92;;;;;;;;;;6260129;28;20450;-68
2022/01/10 15:29:40;;;;;;;40.67;26.38;;;;;;;;;;6252776;28;20119;-68
2022/01/10 15:32:43;;;;;;;46.88;27.75;;;;;;;;;;6259957;28;20496;-68
2022/01/10 15:35:46;;;;;;;45.28;27.92;;;;;;;;;;6256045;28;20595;-68
2022/01/10 15:38:51;;;;;;;43.97;27.70;;;;;;;;;;6251151;28;20435;-69
2022/01/10 15:41:53;;;;;;;52.50;30.48;;;;;;;;;;6256639;28;20041;-68
2022/01/10 15:44:55;;;;;;;46.50;29.17;;;;;;;;;;6251102;28;20048;-69
2022/01/10 15:47:58;;;;;;;51.83;29.90;;;;;;;;;;6257584;28;20174;-68
2022/01/10 15:51:00;;;;;;;50.03;30.13;;;;;;;;;;6253126;28;20475;-69
2022/01/10 15:54:02;;;;;;;56.78;31.38;;;;;;;;;;6258840;28;20751;-69
2022/01/10 15:57:04;;;;;;;51.13;31.13;;;;;;;;;;6256531;28;20639;-68
2022/01/10 16:00:08;;;;;;;55.17;31.75;;;;;;;;;;6256970;28;20135;-69
2022/01/10 16:03:11;;;;;;;49.38;30.17;;;;;;;;;;6257593;28;20511;-68
2022/01/10 16:06:13;;;;;;;50.33;31.40;;;;;;;;;;6258686;28;20045;-69
2022/01/10 16:09:14;;;;;;;53.10;31.33;;;;;;;;;;6254993;28;20053;-69
2022/01/10 16:12:16;;;;;;;50.53;30.92;;;;;;;;;;6259137;28;20126;-69
2022/01/10 16:15:19;;;;;;;49.47;30.85;;;;;;;;;;6255581;28;20049;-69
2022/01/10 16:18:22;;;;;;;52.08;30.98;;;;;;;;;;6259852;28;20045;-69
2022/01/10 16:21:23;;;;;;;54.17;30.95;;;;;;;;;;6261328;28;20068;-69
2022/01/10 16:24:25;;;;;;;52.22;31.08;;;;;;;;;;6257201;28;20136;-69
2022/01/10 16:27:26;;;;;;;50.70;31.52;;;;;;;;;;6259829;28;20782;-69
2022/01/10 16:30:28;;;;;;;58.13;35.33;;;;;;;;;;6259420;28;20474;-68
2022/01/10 16:33:31;;;;;;;59.40;34.15;;;;;;;;;;6255516;28;20053;-69
2022/01/10 16:36:33;;;;;;;63.53;35.05;;;;;;;;;;6257280;28;20057;-68
2022/01/10 16:39:34;;;;;;;57.42;34.20;;;;;;;;;;6253213;28;20069;-68
2022/01/10 16:42:36;;;;;;;60.30;34.72;;;;;;;;;;6251686;28;20417;-68
2022/01/10 16:45:38;;;;;;;63.13;34.25;;;;;;;;;;6250002;28;20107;-69
2022/01/10 16:48:41;;;;;;;66.22;36.15;;;;;;;;;;6256845;28;20139;-69
2022/01/10 16:51:43;;;;;;;59.80;36.37;;;;;;;;;;6253161;28;20053;-68
2022/01/10 16:54:44;;;;;;;58.25;34.75;;;;;;;;;;6256355;28;20089;-68
2022/01/10 16:57:46;;;;;;;57.88;35.17;;;;;;;;;;6256416;28;20037;-70
2022/01/10 17:00:49;;;;;;;70.28;41.40;;;;;;;;;;6257216;28;20114;-68
2022/01/10 17:03:53;;;;;;;63.13;37.15;;;;;;;;;;6256255;28;20038;-69
2022/01/10 17:06:55;;;;;;;66.93;39.00;;;;;;;;;;6251387;28;20059;-68
2022/01/10 17:09:56;;;;;;;63.63;35.53;;;;;;;;;;6252612;28;20080;-68
2022/01/10 17:12:58;;;;;;;61.05;36.00;;;;;;;;;;6248191;28;20446;-68
2022/01/10 17:16:01;;;;;;;66.68;36.95;;;;;;;;;;6252425;28;20172;-68
2022/01/10 17:19:04;;;;;;;57.30;34.72;;;;;;;;;;6255979;28;20057;-69
2022/01/10 17:22:05;;;;;;;60.28;36.55;;;;;;;;;;6259337;28;20092;-68
2022/01/10 17:25:08;;;;;;;58.13;35.63;;;;;;;;;;6262566;28;20131;-69
2022/01/10 17:28:10;;;;;;;59.67;34.53;;;;;;;;;;6274135;28;20124;-68
2022/01/10 17:31:12;;;;;;;59.35;33.53;;;;;;;;;;6270400;28;20056;-68
2022/01/10 17:34:15;;;;;;;61.10;34.40;;;;;;;;;;6272045;28;20154;-69
2022/01/10 17:37:16;;;;;;;59.63;35.08;;;;;;;;;;6271469;28;20048;-68
2022/01/10 17:40:18;;;;;;;67.00;35.65;;;;;;;;;;6268043;28;20115;-68
2022/01/10 17:43:21;;;;;;;65.80;36.78;;;;;;;;;;6270473;28;20143;-68
2022/01/10 17:46:22;;;;;;;68.25;36.65;;;;;;;;;;6272244;28;20045;-68
2022/01/10 17:49:26;;;;;;;66.82;36.33;;;;;;;;;;6261686;28;20045;-68